Time;durP1;ratioP1;P1;durP2;ratioP2;P2;SDS_P1;SDS_P2;PMS_P1;PMS_P2;Temp;Humidity;BMP_temperature;BMP_pressure;BME280_temperature;BME280_humidity;BME280_pressure;Samples;Min_cycle;Max_cycle;Signal;HPM_P1;HPM_P2
2022/05/13 00:01:11;;;;;;;8.40;7.80;;;19.70;99.90;;;;;;10500565;28;20632;-80
2022/05/13 00:06:15;;;;;;;8.40;7.70;;;19.70;99.90;;;;;;10526966;28;20254;-79
2022/05/13 00:11:17;;;;;;;9.27;8.50;;;19.70;99.90;;;;;;10532521;28;20306;-80
2022/05/13 00:16:19;;;;;;;9.03;8.13;;;19.60;99.90;;;;;;10541899;28;20278;-81
2022/05/13 00:21:23;;;;;;;8.80;8.10;;;19.60;99.90;;;;;;10535422;28;20231;-81
2022/05/13 00:26:25;;;;;;;8.53;7.80;;;19.60;99.90;;;;;;10520605;28;20268;-81
2022/05/13 00:31:28;;;;;;;8.33;7.60;;;19.50;99.90;;;;;;10528059;28;20216;-79
2022/05/13 00:36:31;;;;;;;7.90;7.40;;;19.50;99.90;;;;;;10531505;28;20200;-79
2022/05/13 00:41:34;;;;;;;8.57;7.97;;;19.50;99.90;;;;;;10533305;28;20482;-79
2022/05/13 00:46:36;;;;;;;8.27;7.73;;;19.50;99.90;;;;;;10526002;28;20204;-78
2022/05/13 00:51:45;;;;;;;8.53;7.30;;;19.50;99.90;;;;;;10540437;28;20627;-79
2022/05/13 00:56:49;;;;;;;8.90;8.20;;;19.50;99.90;;;;;;10539452;28;20235;-79
2022/05/13 01:01:51;;;;;;;8.67;7.97;;;19.50;99.90;;;;;;10539401;28;20229;-79
2022/05/13 01:06:57;;;;;;;9.20;8.50;;;19.50;99.90;;;;;;10548074;28;20196;-81
2022/05/13 01:12:03;;;;;;;8.73;8.07;;;19.50;99.90;;;;;;10541656;28;20265;-80
2022/05/13 01:22:46;;;;;;;8.83;8.13;;;19.50;99.90;;;;;;10511188;28;20223;-80
2022/05/13 01:27:49;;;;;;;8.90;8.10;;;19.50;99.90;;;;;;10528831;28;20203;-79
2022/05/13 01:32:51;;;;;;;9.83;9.03;;;19.40;99.90;;;;;;10548832;28;20266;-79
2022/05/13 01:37:54;;;;;;;11.50;10.57;;;19.30;99.90;;;;;;10545255;28;20610;-79
2022/05/13 01:42:56;;;;;;;12.60;11.70;;;19.10;99.90;;;;;;10532915;28;20742;-77
2022/05/13 01:47:58;;;;;;;14.10;13.10;;;18.90;99.90;;;;;;10533203;28;20196;-77
2022/05/13 01:53:02;;;;;;;15.27;14.07;;;18.80;99.90;;;;;;10513223;28;20208;-80
2022/05/13 01:58:04;;;;;;;16.07;14.87;;;18.80;99.90;;;;;;10542716;28;20537;-81
2022/05/13 02:08:28;;;;;;;17.63;16.40;;;18.70;99.90;;;;;;10541453;28;20309;-81
2022/05/13 02:13:31;;;;;;;16.87;15.40;;;18.70;99.90;;;;;;10528908;28;20220;-79
2022/05/13 02:18:33;;;;;;;16.07;14.90;;;18.60;99.90;;;;;;10540894;28;20207;-83
2022/05/13 02:23:38;;;;;;;16.67;15.23;;;18.60;99.90;;;;;;10540647;28;20310;-80
2022/05/13 02:28:41;;;;;;;17.00;15.47;;;18.40;99.90;;;;;;10532978;28;20212;-80
2022/05/13 02:33:44;;;;;;;14.70;13.70;;;18.30;99.90;;;;;;10534718;28;20219;-80
2022/05/13 02:38:47;;;;;;;14.57;13.37;;;18.30;99.90;;;;;;10534186;28;20288;-80
2022/05/13 02:43:52;;;;;;;13.30;12.30;;;18.20;99.90;;;;;;10523952;28;20234;-81
2022/05/13 02:48:55;;;;;;;14.10;13.00;;;18.10;99.90;;;;;;10525385;28;20200;-80
2022/05/13 02:53:58;;;;;;;13.60;12.50;;;18.10;99.90;;;;;;10540550;28;20594;-79
2022/05/13 02:59:01;;;;;;;13.57;12.50;;;18.00;99.90;;;;;;10523284;28;20291;-78
2022/05/13 03:04:03;;;;;;;13.83;12.43;;;17.90;99.90;;;;;;10530949;28;20248;-77
2022/05/13 03:09:07;;;;;;;12.07;11.07;;;17.90;99.90;;;;;;10529469;28;20581;-76
2022/05/13 03:14:09;;;;;;;13.20;11.80;;;17.80;99.90;;;;;;10532567;28;20238;-78
2022/05/13 03:19:11;;;;;;;11.83;10.63;;;17.70;99.90;;;;;;10524780;28;20195;-78
2022/05/13 03:24:15;;;;;;;10.30;9.40;;;17.70;99.90;;;;;;10533896;28;20301;-80
2022/05/13 03:29:17;;;;;;;11.23;10.33;;;17.60;99.90;;;;;;10535242;28;20200;-82
2022/05/13 03:34:21;;;;;;;11.43;10.43;;;17.60;99.90;;;;;;10534903;28;20249;-80
2022/05/13 03:39:24;;;;;;;12.27;11.20;;;17.60;99.90;;;;;;10523640;28;20192;-79
2022/05/13 03:44:27;;;;;;;10.37;9.37;;;17.60;99.90;;;;;;10533863;28;20231;-79
2022/05/13 03:49:29;;;;;;;14.40;9.33;;;17.60;99.90;;;;;;10534880;28;20689;-79
2022/05/13 03:54:32;;;;;;;10.80;10.00;;;17.70;99.90;;;;;;10537296;28;20734;-81
2022/05/13 03:59:35;;;;;;;10.17;9.17;;;17.70;99.90;;;;;;10523862;28;20192;-79
2022/05/13 04:09:54;;;;;;;9.07;8.27;;;17.80;99.90;;;;;;10532956;28;20199;-80
2022/05/13 04:20:21;;;;;;;9.57;8.83;;;17.70;99.90;;;;;;10525927;28;20226;-79
2022/05/13 04:25:24;;;;;;;12.03;9.90;;;17.70;99.90;;;;;;10539019;28;20223;-79
2022/05/13 04:30:27;;;;;;;10.97;7.90;;;17.70;99.90;;;;;;10537540;28;20362;-79
2022/05/13 04:35:29;;;;;;;11.70;10.60;;;17.70;99.90;;;;;;10538700;28;20222;-79
2022/05/13 04:40:33;;;;;;;10.87;8.67;;;17.70;99.90;;;;;;10531157;28;20201;-80
2022/05/13 04:45:35;;;;;;;11.40;9.07;;;17.80;99.90;;;;;;10496376;28;20311;-81
2022/05/13 04:50:38;;;;;;;8.70;8.00;;;17.70;99.90;;;;;;10540560;28;20199;-81
2022/05/13 04:55:41;;;;;;;8.97;8.17;;;17.80;99.90;;;;;;10520191;28;20208;-81
2022/05/13 05:00:44;;;;;;;11.03;10.03;;;17.80;99.90;;;;;;10529087;28;20279;-81
2022/05/13 05:05:47;;;;;;;10.83;9.73;;;17.90;99.90;;;;;;10522788;28;20299;-81
2022/05/13 05:10:50;;;;;;;9.70;8.70;;;18.00;99.90;;;;;;10537137;28;20640;-80
2022/05/13 05:15:53;;;;;;;10.47;9.13;;;17.90;99.90;;;;;;10519365;28;20742;-81
2022/05/13 05:20:56;;;;;;;9.20;8.40;;;18.00;99.90;;;;;;10511144;28;20204;-81
2022/05/13 05:26:00;;;;;;;9.27;8.57;;;17.90;99.90;;;;;;10495893;28;20671;-81
2022/05/13 05:31:02;;;;;;;9.80;9.00;;;17.90;99.90;;;;;;10540227;28;20219;-82
2022/05/13 05:36:04;;;;;;;9.20;8.50;;;17.90;99.90;;;;;;10541734;28;20196;-81
2022/05/13 05:41:08;;;;;;;9.67;8.80;;;17.90;99.90;;;;;;10544733;28;20231;-81
2022/05/13 05:46:10;;;;;;;9.43;8.50;;;17.90;99.90;;;;;;10519156;28;20200;-81
2022/05/13 05:51:12;;;;;;;10.63;8.20;;;17.90;99.90;;;;;;10540557;28;20691;-80
2022/05/13 06:01:37;;;;;;;7.80;7.10;;;18.00;99.90;;;;;;10539684;28;20273;-81
2022/05/13 06:06:39;;;;;;;8.07;7.23;;;18.00;99.90;;;;;;10523408;28;20374;-81
2022/05/13 06:11:43;;;;;;;8.43;7.30;;;17.90;99.90;;;;;;10541250;28;20295;-81
2022/05/13 06:16:46;;;;;;;8.40;7.57;;;17.90;99.90;;;;;;10527353;28;20223;-81
2022/05/13 06:21:48;;;;;;;8.60;7.03;;;17.90;99.90;;;;;;10546294;28;20208;-79
2022/05/13 06:26:53;;;;;;;13.33;6.87;;;17.90;99.90;;;;;;10530828;28;20219;-79
2022/05/13 06:31:58;;;;;;;7.93;7.13;;;17.90;99.90;;;;;;10544914;28;20723;-80
2022/05/13 06:37:01;;;;;;;8.63;7.80;;;17.90;99.90;;;;;;10523097;28;20200;-80
2022/05/13 06:42:05;;;;;;;8.97;8.37;;;18.00;99.90;;;;;;10517566;28;20259;-81
2022/05/13 06:47:17;;;;;;;8.97;7.80;;;18.20;99.90;;;;;;10537086;28;20199;-81
2022/05/13 06:52:19;;;;;;;7.50;6.90;;;18.30;99.90;;;;;;10521608;28;20590;-80
2022/05/13 06:57:23;;;;;;;8.03;7.33;;;18.50;99.90;;;;;;10536011;28;20226;-81
2022/05/13 07:02:27;;;;;;;7.80;7.00;;;18.70;99.90;;;;;;10538038;28;20231;-82
2022/05/13 07:07:29;;;;;;;6.73;6.23;;;18.70;99.90;;;;;;10528586;28;20678;-82
2022/05/13 07:12:32;;;;;;;7.23;6.60;;;18.70;99.90;;;;;;10533994;28;20544;-82
2022/05/13 07:17:35;;;;;;;10.13;6.33;;;18.80;99.90;;;;;;10539632;28;20242;-79
2022/05/13 07:22:37;;;;;;;7.17;5.53;;;18.80;99.90;;;;;;10523103;28;20223;-81
2022/05/13 07:27:40;;;;;;;7.80;7.00;;;18.80;99.90;;;;;;10517888;28;20227;-82
2022/05/13 07:32:43;;;;;;;5.63;5.23;;;18.90;99.90;;;;;;10534795;28;20235;-82
2022/05/13 07:37:45;;;;;;;6.27;5.70;;;18.90;99.90;;;;;;10534074;28;20211;-81
2022/05/13 07:42:48;;;;;;;9.67;6.83;;;18.90;99.90;;;;;;10542217;28;20238;-81
2022/05/13 07:47:51;;;;;;;6.03;5.50;;;18.90;99.90;;;;;;10538985;28;20253;-81
2022/05/13 07:52:54;;;;;;;6.60;6.00;;;19.00;99.90;;;;;;10540211;28;20257;-82
2022/05/13 07:57:57;;;;;;;6.23;4.97;;;19.00;99.90;;;;;;10523523;28;20639;-82
2022/05/13 08:03:02;;;;;;;4.40;4.10;;;19.10;99.90;;;;;;10530864;28;20231;-82
2022/05/13 08:08:08;;;;;;;5.13;4.60;;;19.20;99.90;;;;;;10510544;28;20208;-82
2022/05/13 08:13:12;;;;;;;5.33;4.90;;;19.30;99.90;;;;;;10532606;28;20671;-81
2022/05/13 08:18:14;;;;;;;7.10;6.30;;;19.70;99.90;;;;;;10536987;28;20203;-81
2022/05/13 08:23:16;;;;;;;5.87;5.10;;;20.20;99.90;;;;;;10538300;28;20208;-81
2022/05/13 08:28:23;;;;;;;5.40;4.20;;;20.60;99.90;;;;;;10525642;28;20196;-81
2022/05/13 08:33:25;;;;;;;4.17;3.87;;;21.00;99.90;;;;;;10523365;28;20227;-81
2022/05/13 08:38:30;;;;;;;6.00;5.40;;;21.40;99.90;;;;;;10541198;28;20244;-81
2022/05/13 08:43:36;;;;;;;5.60;4.47;;;21.60;99.90;;;;;;10539706;28;20220;-79
2022/05/13 08:48:48;;;;;;;3.90;3.60;;;21.80;99.90;;;;;;10545493;28;20208;-79
2022/05/13 08:53:56;;;;;;;3.80;3.50;;;22.20;99.90;;;;;;10552507;28;20216;-80
2022/05/13 08:59:05;;;;;;;5.63;3.53;;;22.20;99.90;;;;;;10548793;28;20197;-80
2022/05/13 09:04:13;;;;;;;6.27;3.37;;;22.50;99.90;;;;;;10535598;28;20239;-79
2022/05/13 09:09:15;;;;;;;4.50;3.90;;;22.90;99.90;;;;;;10554905;28;20549;-82
2022/05/13 09:14:31;;;;;;;4.60;3.30;;;23.10;99.90;;;;;;10555170;28;20244;-81
2022/05/13 09:19:37;;;;;;;3.97;3.20;;;23.20;99.90;;;;;;10558222;28;20275;-79
2022/05/13 09:24:39;;;;;;;4.97;3.33;;;23.30;99.90;;;;;;10555852;28;20227;-81
2022/05/13 09:29:45;;;;;;;4.43;3.17;;;23.10;99.90;;;;;;10541876;28;20196;-81
2022/05/13 09:34:57;;;;;;;5.97;3.80;;;23.10;99.90;;;;;;10547320;28;20239;-80
2022/05/13 09:40:09;;;;;;;4.90;3.50;;;23.10;99.90;;;;;;10555500;28;20210;-80
2022/05/13 09:45:19;;;;;;;5.27;4.10;;;23.10;99.90;;;;;;10552414;28;20601;-81
2022/05/13 09:50:26;;;;;;;3.40;3.10;;;23.40;99.90;;;;;;10549976;28;20192;-79
2022/05/13 09:55:32;;;;;;;4.00;3.60;;;23.30;99.90;;;;;;10550786;28;20223;-81
2022/05/13 10:00:40;;;;;;;4.13;3.83;;;23.30;99.90;;;;;;10556589;28;20623;-79
2022/05/13 10:05:43;;;;;;;3.53;3.27;;;23.10;99.90;;;;;;10546058;28;20220;-79
2022/05/13 10:16:24;;;;;;;3.57;3.27;;;22.50;99.90;;;;;;10525305;28;20184;-78
2022/05/13 10:21:31;;;;;;;3.63;3.33;;;22.40;99.90;;;;;;10534906;28;20238;-79
2022/05/13 10:26:37;;;;;;;3.87;3.57;;;22.30;99.90;;;;;;10528046;28;20230;-80
2022/05/13 10:31:43;;;;;;;5.17;3.40;;;22.20;99.90;;;;;;10510675;28;20591;-78
2022/05/13 10:36:54;;;;;;;4.40;3.73;;;22.20;99.90;;;;;;10484108;28;20184;-80
2022/05/13 10:41:59;;;;;;;4.60;3.97;;;22.20;99.90;;;;;;10501288;28;20275;-79
2022/05/13 10:47:09;;;;;;;4.10;3.70;;;22.00;99.90;;;;;;10504401;28;20214;-80
2022/05/13 10:52:38;;;;;;;4.43;4.03;;;21.90;99.90;;;;;;10538929;28;20593;-79
2022/05/13 10:57:49;;;;;;;4.20;3.80;;;21.90;99.90;;;;;;10533108;28;20287;-79
2022/05/13 11:03:25;;;;;;;5.10;4.70;;;21.80;99.90;;;;;;10519368;28;20220;-80
2022/05/13 11:08:37;;;;;;;5.23;4.73;;;21.80;99.90;;;;;;10530808;28;20228;-79
2022/05/13 11:13:53;;;;;;;4.97;4.00;;;21.80;99.90;;;;;;10523475;28;20231;-82
2022/05/13 11:19:15;;;;;;;5.03;4.17;;;21.80;99.90;;;;;;10523148;28;20210;-79
2022/05/13 11:29:54;;;;;;;4.33;4.03;;;22.00;99.90;;;;;;10520919;28;20205;-82
2022/05/13 11:35:28;;;;;;;7.90;3.90;;;22.10;99.90;;;;;;10505879;28;20262;-81
2022/05/13 11:40:39;;;;;;;4.90;4.07;;;22.20;99.90;;;;;;10549148;28;20267;-82
2022/05/13 11:46:00;;;;;;;4.27;3.97;;;22.40;99.90;;;;;;10537560;28;20277;-82
2022/05/13 11:51:06;;;;;;;4.50;4.13;;;22.40;99.90;;;;;;10516433;28;20280;-81
2022/05/13 11:56:14;;;;;;;5.03;4.50;;;22.30;99.90;;;;;;10534661;28;20554;-81
2022/05/13 12:01:50;;;;;;;4.40;4.10;;;22.40;99.90;;;;;;10537908;28;20215;-81
2022/05/13 12:06:59;;;;;;;4.70;4.30;;;22.60;99.90;;;;;;10516147;28;20230;-81
2022/05/13 12:12:09;;;;;;;4.73;4.30;;;22.70;99.90;;;;;;10540099;28;20226;-81
2022/05/13 12:17:17;;;;;;;5.30;4.37;;;22.70;99.90;;;;;;10535898;28;20192;-81
2022/05/13 12:22:37;;;;;;;4.83;4.47;;;22.70;99.90;;;;;;10528118;28;20738;-82
2022/05/13 12:27:43;;;;;;;4.77;4.37;;;22.60;99.90;;;;;;10534931;28;20203;-79
2022/05/13 12:32:48;;;;;;;4.70;4.23;;;22.30;99.90;;;;;;10530870;28;20291;-81
2022/05/13 12:38:12;;;;;;;5.17;4.70;;;22.10;99.90;;;;;;10530607;28;20204;-81
2022/05/13 12:43:17;;;;;;;4.47;4.17;;;21.90;99.90;;;;;;10543775;28;20721;-80
2022/05/13 12:48:19;;;;;;;4.10;3.80;;;21.90;99.90;;;;;;10543324;28;20200;-82
2022/05/13 12:53:52;;;;;;;4.73;3.80;;;21.80;99.90;;;;;;10545849;28;20216;-81
2022/05/13 12:59:00;;;;;;;4.63;4.33;;;21.80;99.90;;;;;;10501886;28;20730;-82
2022/05/13 13:04:03;;;;;;;4.50;4.20;;;21.80;99.90;;;;;;10546819;28;20224;-82
2022/05/13 13:09:11;;;;;;;4.60;4.30;;;21.90;99.90;;;;;;10536249;28;20204;-81
2022/05/13 13:14:18;;;;;;;6.20;4.30;;;21.80;99.90;;;;;;10542150;28;20220;-81
2022/05/13 13:19:23;;;;;;;6.57;3.93;;;21.70;99.90;;;;;;10524975;28;20556;-82
2022/05/13 13:24:30;;;;;;;4.30;3.70;;;21.70;99.90;;;;;;10527501;28;20223;-81
2022/05/13 13:29:34;;;;;;;4.57;4.27;;;21.60;99.90;;;;;;10542466;28;20241;-80
2022/05/13 13:34:39;;;;;;;4.37;3.67;;;21.60;99.90;;;;;;10538947;28;20584;-78
2022/05/13 13:39:42;;;;;;;3.70;3.50;;;21.60;99.90;;;;;;10528342;28;20200;-81
2022/05/13 13:44:47;;;;;;;4.27;3.93;;;21.60;99.90;;;;;;10527360;28;20222;-81
2022/05/13 13:49:49;;;;;;;6.07;3.60;;;21.60;99.90;;;;;;10527437;28;20334;-81
2022/05/13 13:54:55;;;;;;;3.13;2.80;;;21.60;99.90;;;;;;10519114;28;20204;-81
2022/05/13 14:00:06;;;;;;;3.33;3.03;;;21.60;99.90;;;;;;10542215;28;20203;-81
2022/05/13 14:05:19;;;;;;;5.03;2.90;;;21.70;99.90;;;;;;10526733;28;20225;-79
2022/05/13 14:10:27;;;;;;;4.40;2.80;;;21.60;99.90;;;;;;10551556;28;20200;-79
2022/05/13 14:15:33;;;;;;;4.97;3.20;;;21.60;99.90;;;;;;10538126;28;20227;-80
2022/05/13 14:20:37;;;;;;;3.83;2.90;;;21.50;99.90;;;;;;10550042;28;20336;-80
2022/05/13 14:25:47;;;;;;;4.47;3.33;;;21.50;99.90;;;;;;10551616;28;20219;-81
2022/05/13 14:30:58;;;;;;;5.83;3.23;;;21.50;99.90;;;;;;10551882;28;20267;-80
2022/05/13 14:36:04;;;;;;;5.23;2.87;;;21.60;99.90;;;;;;10552994;28;20223;-80
2022/05/13 14:41:07;;;;;;;4.13;3.10;;;21.60;99.90;;;;;;10540321;28;20249;-79
2022/05/13 14:46:12;;;;;;;5.50;5.00;;;21.50;99.90;;;;;;10527748;28;20227;-82
2022/05/13 14:51:19;;;;;;;4.10;3.40;;;21.50;99.90;;;;;;10524255;28;20273;-82
2022/05/13 14:56:23;;;;;;;3.20;3.00;;;21.40;99.90;;;;;;10543885;28;20222;-81
2022/05/13 15:01:28;;;;;;;2.93;2.63;;;21.40;99.90;;;;;;10553513;28;20307;-80
2022/05/13 15:06:42;;;;;;;2.73;2.50;;;21.30;99.90;;;;;;10545907;28;20216;-81
2022/05/13 15:11:45;;;;;;;3.20;3.00;;;21.40;99.90;;;;;;10549091;28;20223;-79
2022/05/13 15:16:48;;;;;;;2.80;2.60;;;21.40;99.90;;;;;;10541171;28;20193;-81
2022/05/13 15:21:50;;;;;;;5.07;2.73;;;21.30;99.90;;;;;;10554328;28;20239;-81
2022/05/13 15:26:55;;;;;;;3.30;2.57;;;21.30;99.90;;;;;;10545357;28;20239;-79
2022/05/13 15:31:57;;;;;;;2.87;2.67;;;21.30;99.90;;;;;;10538701;28;20246;-79
2022/05/13 15:36:59;;;;;;;3.07;2.40;;;21.30;99.90;;;;;;10538631;28;20203;-80
2022/05/13 15:42:05;;;;;;;2.50;2.33;;;21.30;99.90;;;;;;10552549;28;20223;-82
2022/05/13 15:47:08;;;;;;;2.93;2.73;;;21.30;99.90;;;;;;10519188;28;20221;-81
2022/05/13 15:57:35;;;;;;;2.83;2.63;;;21.20;99.90;;;;;;10497285;28;20180;-81
2022/05/13 16:02:37;;;;;;;2.73;2.50;;;21.10;99.90;;;;;;10511123;28;20220;-81
2022/05/13 16:07:40;;;;;;;3.00;2.50;;;21.10;99.90;;;;;;10519846;28;20216;-82
2022/05/13 16:12:47;;;;;;;8.43;2.80;;;21.20;99.90;;;;;;10510439;28;20387;-82
2022/05/13 16:17:49;;;;;;;2.27;2.07;;;21.20;99.90;;;;;;10516786;28;20217;-79
2022/05/13 16:22:51;;;;;;;2.60;2.37;;;21.20;97.90;;;;;;10515929;28;20228;-79
2022/05/13 16:27:59;;;;;;;2.77;2.57;;;21.30;99.90;;;;;;10533368;28;20228;-79
2022/05/13 16:33:02;;;;;;;2.67;2.30;;;21.20;97.80;;;;;;10509961;28;20239;-80
2022/05/13 16:38:04;;;;;;;3.50;2.70;;;21.30;99.30;;;;;;10540533;28;20205;-79
2022/05/13 16:43:07;;;;;;;4.40;1.73;;;21.20;99.90;;;;;;10519144;28;20231;-82
2022/05/13 16:48:10;;;;;;;3.27;2.10;;;21.20;98.20;;;;;;10508239;28;20250;-83
2022/05/13 16:53:12;;;;;;;2.40;1.67;;;21.20;98.50;;;;;;10534077;28;20226;-81
2022/05/13 16:58:17;;;;;;;2.60;2.10;;;21.20;96.20;;;;;;10531362;28;20220;-81
2022/05/13 17:03:19;;;;;;;2.23;2.03;;;21.20;98.60;;;;;;10528354;28;20219;-79
2022/05/13 17:08:21;;;;;;;2.53;2.33;;;21.10;99.90;;;;;;10532406;28;20204;-81
2022/05/13 17:24:12;;;;;;;3.00;2.70;;;21.00;99.90;;;;;;10522227;28;20220;-77
2022/05/13 17:29:16;;;;;;;4.17;2.50;;;20.90;99.90;;;;;;10536996;28;20206;-81
2022/05/13 17:34:18;;;;;;;2.67;2.47;;;20.90;99.90;;;;;;10526886;28;20223;-80
2022/05/13 17:39:21;;;;;;;4.00;2.20;;;20.80;99.90;;;;;;10527167;28;20204;-79
2022/05/13 17:44:26;;;;;;;2.67;2.47;;;20.70;99.60;;;;;;10529349;22;20242;-86
2022/05/13 17:49:29;;;;;;;3.07;2.33;;;20.70;99.90;;;;;;10496024;28;20668;-85
2022/05/13 17:54:31;;;;;;;4.30;3.07;;;20.70;99.90;;;;;;10497025;28;20310;-86
2022/05/13 17:59:35;;;;;;;3.17;2.67;;;20.60;99.90;;;;;;10525589;28;20204;-86
2022/05/13 18:04:38;;;;;;;3.13;2.80;;;20.60;99.90;;;;;;10505554;28;20215;-86
2022/05/13 18:09:40;;;;;;;3.03;2.40;;;20.50;99.90;;;;;;10524256;28;20196;-87
2022/05/13 18:14:43;;;;;;;2.93;2.60;;;20.40;99.90;;;;;;10521138;28;20275;-86
2022/05/13 18:19:46;;;;;;;2.73;2.53;;;20.30;99.90;;;;;;10519978;28;20287;-86
2022/05/13 18:24:48;;;;;;;3.80;3.43;;;20.30;99.90;;;;;;10514818;28;20775;-87
2022/05/13 18:29:52;;;;;;;3.37;3.13;;;20.20;99.90;;;;;;10539355;28;20200;-84
2022/05/13 18:34:54;;;;;;;3.30;3.10;;;20.10;99.90;;;;;;10530251;28;20238;-85
2022/05/13 18:50:38;;;;;;;3.50;3.20;;;19.90;99.90;;;;;;10534449;28;20195;-85
2022/05/13 18:55:41;;;;;;;4.07;3.77;;;19.80;99.90;;;;;;10518737;28;20263;-84
2022/05/13 19:00:45;;;;;;;3.77;3.47;;;19.70;99.90;;;;;;10527809;28;20662;-87
2022/05/13 19:05:47;;;;;;;5.20;3.73;;;19.70;99.90;;;;;;10528719;28;20278;-86
2022/05/13 19:10:50;;;;;;;3.40;3.20;;;19.60;99.90;;;;;;10527930;28;20234;-86
2022/05/13 19:15:55;;;;;;;3.67;3.37;;;19.50;99.90;;;;;;10509862;28;20212;-86
2022/05/13 19:20:57;;;;;;;6.90;3.50;;;19.30;99.90;;;;;;10514589;28;20233;-87
2022/05/13 19:26:03;;;;;;;3.57;3.27;;;19.10;99.90;;;;;;10499224;28;20225;-88
2022/05/13 19:31:09;;;;;;;3.93;3.30;;;18.90;99.90;;;;;;10510746;28;20291;-87
2022/05/13 19:36:12;;;;;;;4.20;3.30;;;18.80;99.90;;;;;;10484037;28;20193;-88
2022/05/13 19:41:16;;;;;;;3.90;3.50;;;18.60;99.90;;;;;;10508182;28;20201;-88
2022/05/13 19:46:23;;;;;;;5.50;3.77;;;18.40;99.90;;;;;;10500203;28;20216;-88
2022/05/13 19:51:25;;;;;;;3.90;3.10;;;18.30;99.90;;;;;;10540783;28;20566;-87
2022/05/13 19:56:28;;;;;;;6.20;3.70;;;18.20;99.90;;;;;;10517827;28;20196;-86
2022/05/13 20:01:32;;;;;;;5.47;4.03;;;18.10;99.90;;;;;;10515845;28;20223;-86
2022/05/13 20:11:54;;;;;;;4.63;3.80;;;17.90;99.90;;;;;;10502203;28;20314;-87
2022/05/13 20:16:59;;;;;;;3.80;3.20;;;17.80;99.90;;;;;;10528389;28;20279;-87
2022/05/13 20:27:20;;;;;;;4.40;3.43;;;17.60;99.90;;;;;;10531206;28;20718;-88
2022/05/13 20:32:24;;;;;;;3.30;3.10;;;17.60;99.90;;;;;;10501615;28;20580;-87
2022/05/13 20:37:26;;;;;;;2.83;2.60;;;17.50;99.90;;;;;;10534696;28;20203;-87
2022/05/13 20:42:28;;;;;;;3.10;2.80;;;17.40;99.90;;;;;;10530586;28;20235;-86
2022/05/13 20:47:32;;;;;;;3.63;3.30;;;17.40;99.90;;;;;;10507771;28;20232;-86
2022/05/13 20:52:35;;;;;;;6.93;3.40;;;17.30;99.90;;;;;;10491007;28;20227;-85
2022/05/13 20:57:38;;;;;;;5.57;2.83;;;17.30;99.90;;;;;;10528846;28;20639;-85
2022/05/13 21:02:42;;;;;;;2.70;2.50;;;17.10;99.90;;;;;;10517539;28;20229;-87
2022/05/13 21:07:46;;;;;;;5.47;2.90;;;17.10;99.90;;;;;;10515004;28;20265;-87
2022/05/13 21:12:48;;;;;;;2.63;2.30;;;17.00;99.90;;;;;;10526813;28;20239;-87
2022/05/13 21:17:52;;;;;;;4.10;2.63;;;17.00;99.90;;;;;;10523511;28;20242;-88
2022/05/13 21:22:54;;;;;;;6.60;3.10;;;16.90;99.90;;;;;;10508638;28;20292;-88
2022/05/13 21:27:56;;;;;;;3.00;2.70;;;16.90;99.90;;;;;;10511499;28;20219;-88
2022/05/13 21:38:19;;;;;;;3.57;2.60;;;16.80;99.90;;;;;;10467712;28;20203;-86
2022/05/13 21:43:21;;;;;;;4.00;2.77;;;16.80;99.90;;;;;;10516177;28;20258;-87
2022/05/13 21:48:25;;;;;;;18.83;3.90;;;16.70;99.90;;;;;;10502550;28;20224;-86
2022/05/13 21:53:27;;;;;;;3.07;2.83;;;16.70;99.90;;;;;;10499023;28;20220;-88
2022/05/13 21:58:30;;;;;;;2.67;2.47;;;16.70;99.90;;;;;;10532361;28;20196;-87
2022/05/13 22:03:33;;;;;;;4.20;2.33;;;16.60;99.90;;;;;;10507426;28;20691;-85
2022/05/13 22:08:36;;;;;;;5.50;2.50;;;16.60;99.90;;;;;;10500838;28;20228;-86
2022/05/13 22:13:38;;;;;;;3.67;2.47;;;16.50;99.90;;;;;;10506637;28;20318;-86
2022/05/13 22:18:42;;;;;;;3.13;2.87;;;16.50;99.90;;;;;;10519757;28;20204;-85
2022/05/13 22:23:44;;;;;;;2.70;2.50;;;16.40;99.90;;;;;;10504040;28;20293;-84
2022/05/13 22:28:46;;;;;;;3.70;2.70;;;16.40;99.90;;;;;;10509046;28;20308;-86
2022/05/13 22:33:49;;;;;;;3.17;2.67;;;16.30;99.90;;;;;;10533562;28;20641;-87
2022/05/13 22:38:52;;;;;;;3.87;2.80;;;16.30;99.90;;;;;;10521531;28;20653;-87
2022/05/13 22:43:54;;;;;;;4.73;3.27;;;16.20;99.90;;;;;;10482315;28;20617;-87
2022/05/13 22:48:57;;;;;;;4.00;3.60;;;16.20;99.90;;;;;;10516232;28;20318;-86
2022/05/13 22:54:00;;;;;;;7.23;3.97;;;16.20;99.90;;;;;;10528803;28;20220;-86
2022/05/13 22:59:02;;;;;;;4.53;4.13;;;16.10;99.90;;;;;;10535504;28;20192;-87
2022/05/13 23:04:06;;;;;;;6.67;4.40;;;16.10;99.90;;;;;;10529148;28;20639;-87
2022/05/13 23:14:28;;;;;;;4.23;3.70;;;16.00;99.90;;;;;;10530396;28;20227;-86
2022/05/13 23:19:32;;;;;;;8.53;3.30;;;16.00;99.90;;;;;;10534211;28;20233;-86
2022/05/13 23:24:34;;;;;;;3.00;2.70;;;16.00;99.90;;;;;;10518627;28;20277;-87
2022/05/13 23:29:36;;;;;;;3.50;2.90;;;15.90;99.90;;;;;;10519395;28;20625;-86
2022/05/13 23:34:40;;;;;;;5.00;2.40;;;15.90;99.90;;;;;;10489167;28;20212;-87
2022/05/13 23:39:42;;;;;;;2.43;2.20;;;15.90;99.90;;;;;;10495366;28;20192;-87
2022/05/13 23:44:46;;;;;;;2.20;2.10;;;15.90;99.90;;;;;;10480851;28;20247;-86
2022/05/13 23:49:50;;;;;;;5.17;2.33;;;15.80;99.90;;;;;;10476039;28;20203;-89
